Decoded Metar for LFBL (LIMOGES in FRANCE) (IATA:LIG) | Meteo·Mobile Aviation Weather
aviador You're here:

LFBL Decoded Metar

LIMOGES in FRANCE
Report Time2019-10-19 22:30:00
UTC Time2019-10-19 23:05:31
Flight Rules vfr VFR
Wind040° at 05 kt
W.Decomp.*RWY 03: 4.9 kt HW 1.0 kt RCW
Visibility9999 m
Phenomena:N/A
Clouds:Overcast 034 Hf
Expected CloudBase > 400 ft AGL from Temp-Dew spread
Ceiling3,400 ft
Temp13°C (ISA +1)
Dew Point12°C (94% RH)
AAT11.8°C
QNH1004 hPa
Density Alt1,893 ft
Elevation1,319 ft
Report Wrong Elevation
Raw Report
LFBL 192230Z AUTO 04005KT 9999 OVC034 13/12 Q1004 BECMG BKN014=

Extra information for LFBL:More info

Metar Taf Metar & Taf Last 4 Metars F.Rules Stats Wind Profile Meteogram Temp Stats Airport Information Weather charts Add Link Nearby VenuesMetar ALERT Operation Metar Decoded Social comments